sensor_id;sensor_type;location;lat;lon;timestamp;temperature;humidity
32296;DHT22;18781;51.550;5.418;2022-07-22T00:00:21;19.80;69.30
32296;DHT22;18781;51.550;5.418;2022-07-22T00:02:47;19.80;69.30
32296;DHT22;18781;51.550;5.418;2022-07-22T00:05:12;19.80;69.40
32296;DHT22;18781;51.550;5.418;2022-07-22T00:07:39;19.80;69.50
32296;DHT22;18781;51.550;5.418;2022-07-22T00:10:07;19.80;69.40
32296;DHT22;18781;51.550;5.418;2022-07-22T00:12:33;19.80;69.50
32296;DHT22;18781;51.550;5.418;2022-07-22T00:14:59;19.80;69.60
32296;DHT22;18781;51.550;5.418;2022-07-22T00:17:24;19.90;70.20
32296;DHT22;18781;51.550;5.418;2022-07-22T00:19:50;19.90;69.50
32296;DHT22;18781;51.550;5.418;2022-07-22T00:22:16;19.90;69.50
32296;DHT22;18781;51.550;5.418;2022-07-22T00:24:41;19.90;69.50
32296;DHT22;18781;51.550;5.418;2022-07-22T00:27:07;19.90;69.70
32296;DHT22;18781;51.550;5.418;2022-07-22T00:29:33;19.90;69.60
32296;DHT22;18781;51.550;5.418;2022-07-22T00:31:58;19.90;69.60
32296;DHT22;18781;51.550;5.418;2022-07-22T00:34:24;19.90;69.60
32296;DHT22;18781;51.550;5.418;2022-07-22T00:36:49;19.90;69.60
32296;DHT22;18781;51.550;5.418;2022-07-22T00:39:15;19.90;69.60
32296;DHT22;18781;51.550;5.418;2022-07-22T00:41:41;19.90;69.70
32296;DHT22;18781;51.550;5.418;2022-07-22T00:44:08;19.90;69.80
32296;DHT22;18781;51.550;5.418;2022-07-22T00:46:36;19.90;69.90
32296;DHT22;18781;51.550;5.418;2022-07-22T00:49:04;19.90;69.90
32296;DHT22;18781;51.550;5.418;2022-07-22T00:51:30;19.90;69.80
32296;DHT22;18781;51.550;5.418;2022-07-22T00:53:57;20.00;69.90
32296;DHT22;18781;51.550;5.418;2022-07-22T00:56:25;19.90;69.80
32296;DHT22;18781;51.550;5.418;2022-07-22T00:58:52;19.90;69.90
32296;DHT22;18781;51.550;5.418;2022-07-22T01:01:19;20.00;69.90
32296;DHT22;18781;51.550;5.418;2022-07-22T01:03:44;20.00;69.80
32296;DHT22;18781;51.550;5.418;2022-07-22T01:06:10;20.00;69.80
32296;DHT22;18781;51.550;5.418;2022-07-22T01:08:37;20.00;69.80
32296;DHT22;18781;51.550;5.418;2022-07-22T01:11:14;20.00;69.60
32296;DHT22;18781;51.550;5.418;2022-07-22T01:13:41;20.00;69.60
32296;DHT22;18781;51.550;5.418;2022-07-22T01:16:08;20.00;69.60
32296;DHT22;18781;51.550;5.418;2022-07-22T01:18:35;20.00;69.50
32296;DHT22;18781;51.550;5.418;2022-07-22T01:21:01;20.00;69.50
32296;DHT22;18781;51.550;5.418;2022-07-22T01:23:27;20.00;69.40
32296;DHT22;18781;51.550;5.418;2022-07-22T01:25:53;20.00;69.40
32296;DHT22;18781;51.550;5.418;2022-07-22T01:28:19;20.00;69.40
32296;DHT22;18781;51.550;5.418;2022-07-22T01:30:45;19.90;69.20
32296;DHT22;18781;51.550;5.418;2022-07-22T01:33:11;19.90;69.10
32296;DHT22;18781;51.550;5.418;2022-07-22T01:35:36;19.90;69.10
32296;DHT22;18781;51.550;5.418;2022-07-22T01:38:02;19.90;69.00
32296;DHT22;18781;51.550;5.418;2022-07-22T01:40:28;19.90;69.10
32296;DHT22;18781;51.550;5.418;2022-07-22T01:42:54;19.90;69.00
32296;DHT22;18781;51.550;5.418;2022-07-22T01:45:19;19.80;69.00
32296;DHT22;18781;51.550;5.418;2022-07-22T01:47:45;19.80;69.10
32296;DHT22;18781;51.550;5.418;2022-07-22T01:50:11;19.80;69.10
32296;DHT22;18781;51.550;5.418;2022-07-22T01:52:38;19.80;69.10
32296;DHT22;18781;51.550;5.418;2022-07-22T01:55:06;19.80;69.10
32296;DHT22;18781;51.550;5.418;2022-07-22T01:57:32;19.70;69.10
32296;DHT22;18781;51.550;5.418;2022-07-22T01:59:57;19.70;69.20
32296;DHT22;18781;51.550;5.418;2022-07-22T02:02:23;19.70;69.30
32296;DHT22;18781;51.550;5.418;2022-07-22T02:04:49;19.70;69.30
32296;DHT22;18781;51.550;5.418;2022-07-22T02:07:14;19.70;69.50
32296;DHT22;18781;51.550;5.418;2022-07-22T02:09:40;19.70;69.60
32296;DHT22;18781;51.550;5.418;2022-07-22T02:12:06;19.60;69.60
32296;DHT22;18781;51.550;5.418;2022-07-22T02:14:31;19.60;69.70
32296;DHT22;18781;51.550;5.418;2022-07-22T02:16:57;19.60;69.80
32296;DHT22;18781;51.550;5.418;2022-07-22T02:19:23;19.60;69.80
32296;DHT22;18781;51.550;5.418;2022-07-22T02:21:48;19.60;69.90
32296;DHT22;18781;51.550;5.418;2022-07-22T02:24:14;19.60;70.00
32296;DHT22;18781;51.550;5.418;2022-07-22T02:26:40;19.60;70.00
32296;DHT22;18781;51.550;5.418;2022-07-22T02:29:05;19.60;69.90
32296;DHT22;18781;51.550;5.418;2022-07-22T02:31:31;19.60;70.00
32296;DHT22;18781;51.550;5.418;2022-07-22T02:33:57;19.60;70.10
32296;DHT22;18781;51.550;5.418;2022-07-22T02:36:23;19.60;70.10
32296;DHT22;18781;51.550;5.418;2022-07-22T02:38:48;19.60;70.10
32296;DHT22;18781;51.550;5.418;2022-07-22T02:41:14;19.60;70.10
32296;DHT22;18781;51.550;5.418;2022-07-22T02:43:39;19.60;70.20
32296;DHT22;18781;51.550;5.418;2022-07-22T02:46:05;19.60;70.30
32296;DHT22;18781;51.550;5.418;2022-07-22T02:48:31;19.50;70.40
32296;DHT22;18781;51.550;5.418;2022-07-22T02:50:56;19.50;70.30
32296;DHT22;18781;51.550;5.418;2022-07-22T02:53:22;19.50;70.90
32296;DHT22;18781;51.550;5.418;2022-07-22T02:55:48;19.50;70.40
32296;DHT22;18781;51.550;5.418;2022-07-22T02:58:13;19.50;70.50
32296;DHT22;18781;51.550;5.418;2022-07-22T03:00:39;19.50;70.40
32296;DHT22;18781;51.550;5.418;2022-07-22T03:03:05;19.60;70.60
32296;DHT22;18781;51.550;5.418;2022-07-22T03:05:30;19.50;70.40
32296;DHT22;18781;51.550;5.418;2022-07-22T03:07:56;19.60;70.50
32296;DHT22;18781;51.550;5.418;2022-07-22T03:10:22;19.50;70.60
32296;DHT22;18781;51.550;5.418;2022-07-22T03:12:47;19.50;70.60
32296;DHT22;18781;51.550;5.418;2022-07-22T03:15:13;19.50;70.50
32296;DHT22;18781;51.550;5.418;2022-07-22T03:17:39;19.50;70.40
32296;DHT22;18781;51.550;5.418;2022-07-22T03:20:07;19.60;70.40
32296;DHT22;18781;51.550;5.418;2022-07-22T03:22:33;19.50;70.40
32296;DHT22;18781;51.550;5.418;2022-07-22T03:24:59;19.50;70.50
32296;DHT22;18781;51.550;5.418;2022-07-22T03:27:25;19.50;70.50
32296;DHT22;18781;51.550;5.418;2022-07-22T03:29:50;19.50;70.50
32296;DHT22;18781;51.550;5.418;2022-07-22T03:32:16;19.50;70.50
32296;DHT22;18781;51.550;5.418;2022-07-22T03:34:42;19.50;70.50
32296;DHT22;18781;51.550;5.418;2022-07-22T03:37:07;19.50;70.60
32296;DHT22;18781;51.550;5.418;2022-07-22T03:39:33;19.50;70.50
32296;DHT22;18781;51.550;5.418;2022-07-22T03:41:59;19.50;70.60
32296;DHT22;18781;51.550;5.418;2022-07-22T03:44:25;19.50;70.70
32296;DHT22;18781;51.550;5.418;2022-07-22T03:46:50;19.50;71.30
32296;DHT22;18781;51.550;5.418;2022-07-22T03:49:16;19.50;70.60
32296;DHT22;18781;51.550;5.418;2022-07-22T03:51:42;19.50;70.70
32296;DHT22;18781;51.550;5.418;2022-07-22T03:54:08;19.50;70.80
32296;DHT22;18781;51.550;5.418;2022-07-22T03:56:34;19.50;70.90
32296;DHT22;18781;51.550;5.418;2022-07-22T03:58:59;19.50;71.00
32296;DHT22;18781;51.550;5.418;2022-07-22T04:01:25;19.50;71.00
32296;DHT22;18781;51.550;5.418;2022-07-22T04:03:51;19.50;71.00
32296;DHT22;18781;51.550;5.418;2022-07-22T04:06:16;19.50;71.00
32296;DHT22;18781;51.550;5.418;2022-07-22T04:08:42;19.50;71.00
32296;DHT22;18781;51.550;5.418;2022-07-22T04:11:08;19.50;71.00
32296;DHT22;18781;51.550;5.418;2022-07-22T04:13:34;19.50;71.10
32296;DHT22;18781;51.550;5.418;2022-07-22T04:15:59;19.50;71.70
32296;DHT22;18781;51.550;5.418;2022-07-22T04:18:25;19.50;71.20
32296;DHT22;18781;51.550;5.418;2022-07-22T04:20:51;19.50;71.20
32296;DHT22;18781;51.550;5.418;2022-07-22T04:23:17;19.60;71.20
32296;DHT22;18781;51.550;5.418;2022-07-22T04:25:42;19.50;71.10
32296;DHT22;18781;51.550;5.418;2022-07-22T04:28:08;19.50;71.10
32296;DHT22;18781;51.550;5.418;2022-07-22T04:30:33;19.50;71.20
32296;DHT22;18781;51.550;5.418;2022-07-22T04:32:59;19.50;71.20
32296;DHT22;18781;51.550;5.418;2022-07-22T04:35:25;19.60;71.30
32296;DHT22;18781;51.550;5.418;2022-07-22T04:37:51;19.60;71.40
32296;DHT22;18781;51.550;5.418;2022-07-22T04:40:17;19.60;71.50
32296;DHT22;18781;51.550;5.418;2022-07-22T04:42:42;19.60;71.40
32296;DHT22;18781;51.550;5.418;2022-07-22T04:45:08;19.60;71.40
32296;DHT22;18781;51.550;5.418;2022-07-22T04:47:34;19.60;71.40
32296;DHT22;18781;51.550;5.418;2022-07-22T04:50:00;19.60;71.50
32296;DHT22;18781;51.550;5.418;2022-07-22T04:52:25;19.60;71.50
32296;DHT22;18781;51.550;5.418;2022-07-22T04:54:51;19.70;71.50
32296;DHT22;18781;51.550;5.418;2022-07-22T04:57:17;19.70;71.50
32296;DHT22;18781;51.550;5.418;2022-07-22T04:59:42;19.70;71.50
32296;DHT22;18781;51.550;5.418;2022-07-22T05:02:08;19.70;71.40
32296;DHT22;18781;51.550;5.418;2022-07-22T05:04:34;19.70;71.30
32296;DHT22;18781;51.550;5.418;2022-07-22T05:06:59;19.70;71.40
32296;DHT22;18781;51.550;5.418;2022-07-22T05:09:25;19.70;71.50
32296;DHT22;18781;51.550;5.418;2022-07-22T05:11:51;19.70;71.40
32296;DHT22;18781;51.550;5.418;2022-07-22T05:14:17;19.80;71.50
32296;DHT22;18781;51.550;5.418;2022-07-22T05:16:42;19.80;71.50
32296;DHT22;18781;51.550;5.418;2022-07-22T05:19:08;19.80;71.50
32296;DHT22;18781;51.550;5.418;2022-07-22T05:21:33;19.80;71.40
32296;DHT22;18781;51.550;5.418;2022-07-22T05:23:59;19.80;71.50
32296;DHT22;18781;51.550;5.418;2022-07-22T05:26:25;19.80;71.60
32296;DHT22;18781;51.550;5.418;2022-07-22T05:28:54;19.80;71.60
32296;DHT22;18781;51.550;5.418;2022-07-22T05:31:19;19.90;71.60
32296;DHT22;18781;51.550;5.418;2022-07-22T05:33:45;19.90;71.60
32296;DHT22;18781;51.550;5.418;2022-07-22T05:36:11;19.90;71.30
32296;DHT22;18781;51.550;5.418;2022-07-22T05:38:36;19.90;71.30
32296;DHT22;18781;51.550;5.418;2022-07-22T05:41:02;20.00;71.10
32296;DHT22;18781;51.550;5.418;2022-07-22T05:43:28;20.00;71.30
32296;DHT22;18781;51.550;5.418;2022-07-22T05:45:54;20.00;71.20
32296;DHT22;18781;51.550;5.418;2022-07-22T05:48:19;20.00;71.30
32296;DHT22;18781;51.550;5.418;2022-07-22T05:50:45;20.00;71.50
32296;DHT22;18781;51.550;5.418;2022-07-22T05:53:10;20.10;71.70
32296;DHT22;18781;51.550;5.418;2022-07-22T05:55:36;20.10;71.50
32296;DHT22;18781;51.550;5.418;2022-07-22T05:58:02;20.10;71.30
32296;DHT22;18781;51.550;5.418;2022-07-22T06:00:28;20.20;71.20
32296;DHT22;18781;51.550;5.418;2022-07-22T06:02:53;20.20;71.10
32296;DHT22;18781;51.550;5.418;2022-07-22T06:05:19;20.30;71.20
32296;DHT22;18781;51.550;5.418;2022-07-22T06:07:45;20.30;71.20
32296;DHT22;18781;51.550;5.418;2022-07-22T06:10:11;20.30;71.10
32296;DHT22;18781;51.550;5.418;2022-07-22T06:12:37;20.40;71.20
32296;DHT22;18781;51.550;5.418;2022-07-22T06:15:03;20.30;70.90
32296;DHT22;18781;51.550;5.418;2022-07-22T06:17:29;20.40;71.00
32296;DHT22;18781;51.550;5.418;2022-07-22T06:19:54;20.40;70.80
32296;DHT22;18781;51.550;5.418;2022-07-22T06:22:20;20.50;70.60
32296;DHT22;18781;51.550;5.418;2022-07-22T06:24:45;20.50;70.30
32296;DHT22;18781;51.550;5.418;2022-07-22T06:27:11;20.50;70.30
32296;DHT22;18781;51.550;5.418;2022-07-22T06:29:37;20.60;70.30
32296;DHT22;18781;51.550;5.418;2022-07-22T06:32:03;20.60;70.20
32296;DHT22;18781;51.550;5.418;2022-07-22T06:34:29;20.60;70.00
32296;DHT22;18781;51.550;5.418;2022-07-22T06:36:55;20.70;70.00
32296;DHT22;18781;51.550;5.418;2022-07-22T06:39:20;20.70;69.00
32296;DHT22;18781;51.550;5.418;2022-07-22T06:41:46;20.70;68.90
32296;DHT22;18781;51.550;5.418;2022-07-22T06:44:12;20.80;69.20
32296;DHT22;18781;51.550;5.418;2022-07-22T06:46:37;20.80;68.60
32296;DHT22;18781;51.550;5.418;2022-07-22T06:49:03;20.80;68.30
32296;DHT22;18781;51.550;5.418;2022-07-22T06:51:29;20.90;68.80
32296;DHT22;18781;51.550;5.418;2022-07-22T06:53:55;20.90;68.80
32296;DHT22;18781;51.550;5.418;2022-07-22T06:56:20;21.00;68.10
32296;DHT22;18781;51.550;5.418;2022-07-22T06:58:46;21.00;66.80
32296;DHT22;18781;51.550;5.418;2022-07-22T07:01:12;21.00;66.30
32296;DHT22;18781;51.550;5.418;2022-07-22T07:03:37;21.10;66.90
32296;DHT22;18781;51.550;5.418;2022-07-22T07:06:06;21.10;66.30
32296;DHT22;18781;51.550;5.418;2022-07-22T07:08:32;21.10;65.60
32296;DHT22;18781;51.550;5.418;2022-07-22T07:10:57;21.20;65.70
32296;DHT22;18781;51.550;5.418;2022-07-22T07:13:23;21.20;64.70
32296;DHT22;18781;51.550;5.418;2022-07-22T07:15:48;21.20;64.10
32296;DHT22;18781;51.550;5.418;2022-07-22T07:18:14;21.20;64.00
32296;DHT22;18781;51.550;5.418;2022-07-22T07:20:40;21.30;64.20
32296;DHT22;18781;51.550;5.418;2022-07-22T07:23:05;21.30;63.70
32296;DHT22;18781;51.550;5.418;2022-07-22T07:25:31;21.30;63.30
32296;DHT22;18781;51.550;5.418;2022-07-22T07:27:57;21.30;64.20
32296;DHT22;18781;51.550;5.418;2022-07-22T07:30:22;21.30;64.10
32296;DHT22;18781;51.550;5.418;2022-07-22T07:32:48;21.40;63.70
32296;DHT22;18781;51.550;5.418;2022-07-22T07:35:14;21.50;63.50
32296;DHT22;18781;51.550;5.418;2022-07-22T07:37:39;21.50;63.10
32296;DHT22;18781;51.550;5.418;2022-07-22T07:40:06;21.50;62.70
32296;DHT22;18781;51.550;5.418;2022-07-22T07:42:32;21.50;62.60
32296;DHT22;18781;51.550;5.418;2022-07-22T07:44:58;21.50;62.00
32296;DHT22;18781;51.550;5.418;2022-07-22T07:47:23;21.60;62.70
32296;DHT22;18781;51.550;5.418;2022-07-22T07:49:49;21.60;62.20
32296;DHT22;18781;51.550;5.418;2022-07-22T07:52:16;21.60;61.90
32296;DHT22;18781;51.550;5.418;2022-07-22T07:54:42;21.60;61.40
32296;DHT22;18781;51.550;5.418;2022-07-22T07:57:09;21.60;61.30
32296;DHT22;18781;51.550;5.418;2022-07-22T07:59:36;21.60;61.40
32296;DHT22;18781;51.550;5.418;2022-07-22T08:02:02;21.70;61.60
32296;DHT22;18781;51.550;5.418;2022-07-22T08:04:28;21.70;61.40
32296;DHT22;18781;51.550;5.418;2022-07-22T08:06:54;21.70;61.10
32296;DHT22;18781;51.550;5.418;2022-07-22T08:09:20;21.80;59.30
32296;DHT22;18781;51.550;5.418;2022-07-22T08:11:45;21.80;58.60
32296;DHT22;18781;51.550;5.418;2022-07-22T08:14:11;21.80;59.20
32296;DHT22;18781;51.550;5.418;2022-07-22T08:16:37;21.90;60.60
32296;DHT22;18781;51.550;5.418;2022-07-22T08:19:03;22.00;60.60
32296;DHT22;18781;51.550;5.418;2022-07-22T08:21:29;22.00;59.80
32296;DHT22;18781;51.550;5.418;2022-07-22T08:23:55;22.10;59.60
32296;DHT22;18781;51.550;5.418;2022-07-22T08:26:20;22.20;59.20
32296;DHT22;18781;51.550;5.418;2022-07-22T08:28:46;22.20;58.60
32296;DHT22;18781;51.550;5.418;2022-07-22T08:31:12;22.30;58.20
32296;DHT22;18781;51.550;5.418;2022-07-22T08:33:38;22.30;58.00
32296;DHT22;18781;51.550;5.418;2022-07-22T08:36:03;22.40;57.90
32296;DHT22;18781;51.550;5.418;2022-07-22T08:38:29;22.40;57.80
32296;DHT22;18781;51.550;5.418;2022-07-22T08:40:55;22.40;56.30
32296;DHT22;18781;51.550;5.418;2022-07-22T08:43:22;22.50;57.10
32296;DHT22;18781;51.550;5.418;2022-07-22T08:45:48;22.40;57.40
32296;DHT22;18781;51.550;5.418;2022-07-22T08:48:15;22.50;56.70
32296;DHT22;18781;51.550;5.418;2022-07-22T08:50:41;22.40;56.10
32296;DHT22;18781;51.550;5.418;2022-07-22T08:53:11;22.40;56.60
32296;DHT22;18781;51.550;5.418;2022-07-22T08:55:47;22.40;56.60
32296;DHT22;18781;51.550;5.418;2022-07-22T08:58:14;22.50;57.30
32296;DHT22;18781;51.550;5.418;2022-07-22T09:00:40;22.50;57.40
32296;DHT22;18781;51.550;5.418;2022-07-22T09:03:26;22.50;57.80
32296;DHT22;18781;51.550;5.418;2022-07-22T09:05:53;22.60;56.70
32296;DHT22;18781;51.550;5.418;2022-07-22T09:08:20;22.60;56.80
32296;DHT22;18781;51.550;5.418;2022-07-22T09:10:46;22.60;57.70
32296;DHT22;18781;51.550;5.418;2022-07-22T09:13:14;22.70;56.60
32296;DHT22;18781;51.550;5.418;2022-07-22T09:15:49;22.70;56.70
32296;DHT22;18781;51.550;5.418;2022-07-22T09:18:16;22.70;57.00
32296;DHT22;18781;51.550;5.418;2022-07-22T09:20:42;22.80;57.90
32296;DHT22;18781;51.550;5.418;2022-07-22T09:23:19;22.80;58.40
32296;DHT22;18781;51.550;5.418;2022-07-22T09:25:49;23.00;57.10
32296;DHT22;18781;51.550;5.418;2022-07-22T09:28:18;23.00;57.40
32296;DHT22;18781;51.550;5.418;2022-07-22T09:30:52;23.10;57.50
32296;DHT22;18781;51.550;5.418;2022-07-22T09:33:18;23.20;55.50
32296;DHT22;18781;51.550;5.418;2022-07-22T09:35:45;23.20;55.50
32296;DHT22;18781;51.550;5.418;2022-07-22T09:38:12;23.30;55.70
32296;DHT22;18781;51.550;5.418;2022-07-22T09:40:44;23.30;56.10
32296;DHT22;18781;51.550;5.418;2022-07-22T09:43:14;23.40;55.30
32296;DHT22;18781;51.550;5.418;2022-07-22T09:45:54;23.40;55.40
32296;DHT22;18781;51.550;5.418;2022-07-22T09:48:22;23.50;55.40
32296;DHT22;18781;51.550;5.418;2022-07-22T09:50:49;23.60;55.80
32296;DHT22;18781;51.550;5.418;2022-07-22T09:53:16;23.60;55.90
32296;DHT22;18781;51.550;5.418;2022-07-22T09:55:42;23.70;55.80
32296;DHT22;18781;51.550;5.418;2022-07-22T09:58:08;23.80;56.10
32296;DHT22;18781;51.550;5.418;2022-07-22T10:00:35;23.80;54.90
32296;DHT22;18781;51.550;5.418;2022-07-22T10:03:03;23.90;55.50
32296;DHT22;18781;51.550;5.418;2022-07-22T10:05:32;24.00;55.60
32296;DHT22;18781;51.550;5.418;2022-07-22T10:08:00;24.00;55.20
32296;DHT22;18781;51.550;5.418;2022-07-22T10:10:29;24.10;53.30
32296;DHT22;18781;51.550;5.418;2022-07-22T10:12:57;24.20;53.30
32296;DHT22;18781;51.550;5.418;2022-07-22T10:15:24;24.20;53.70
32296;DHT22;18781;51.550;5.418;2022-07-22T10:17:52;24.20;54.10
32296;DHT22;18781;51.550;5.418;2022-07-22T10:20:24;24.20;53.40
32296;DHT22;18781;51.550;5.418;2022-07-22T10:22:59;24.30;53.40
32296;DHT22;18781;51.550;5.418;2022-07-22T10:25:27;24.30;52.80
32296;DHT22;18781;51.550;5.418;2022-07-22T10:27:54;24.40;52.20
32296;DHT22;18781;51.550;5.418;2022-07-22T10:30:23;24.40;52.10
32296;DHT22;18781;51.550;5.418;2022-07-22T10:35:55;24.40;54.60
32296;DHT22;18781;51.550;5.418;2022-07-22T10:38:22;24.40;52.50
32296;DHT22;18781;51.550;5.418;2022-07-22T10:40:58;24.50;52.60
32296;DHT22;18781;51.550;5.418;2022-07-22T10:43:26;24.60;53.10
32296;DHT22;18781;51.550;5.418;2022-07-22T10:45:57;24.70;53.50
32296;DHT22;18781;51.550;5.418;2022-07-22T10:48:25;24.70;52.40
32296;DHT22;18781;51.550;5.418;2022-07-22T10:50:53;24.80;51.80
32296;DHT22;18781;51.550;5.418;2022-07-22T10:53:23;24.90;52.60
32296;DHT22;18781;51.550;5.418;2022-07-22T10:56:14;25.00;50.90
32296;DHT22;18781;51.550;5.418;2022-07-22T10:58:42;25.10;52.10
32296;DHT22;18781;51.550;5.418;2022-07-22T11:01:10;25.20;50.90
32296;DHT22;18781;51.550;5.418;2022-07-22T11:03:38;25.20;50.90
32296;DHT22;18781;51.550;5.418;2022-07-22T11:06:33;25.20;50.10
32296;DHT22;18781;51.550;5.418;2022-07-22T11:09:01;25.20;51.30
32296;DHT22;18781;51.550;5.418;2022-07-22T11:11:40;25.20;50.50
32296;DHT22;18781;51.550;5.418;2022-07-22T11:16:45;25.30;50.80
32296;DHT22;18781;51.550;5.418;2022-07-22T11:19:11;25.30;50.20
32296;DHT22;18781;51.550;5.418;2022-07-22T11:21:37;25.30;50.70
32296;DHT22;18781;51.550;5.418;2022-07-22T11:24:04;25.30;50.60
32296;DHT22;18781;51.550;5.418;2022-07-22T11:29:05;25.40;50.60
32296;DHT22;18781;51.550;5.418;2022-07-22T11:31:30;25.50;49.70
32296;DHT22;18781;51.550;5.418;2022-07-22T11:34:10;25.50;48.50
32296;DHT22;18781;51.550;5.418;2022-07-22T11:36:39;25.50;49.20
32296;DHT22;18781;51.550;5.418;2022-07-22T11:39:06;25.50;49.10
32296;DHT22;18781;51.550;5.418;2022-07-22T11:41:32;25.50;48.40
32296;DHT22;18781;51.550;5.418;2022-07-22T11:43:58;25.50;48.80
32296;DHT22;18781;51.550;5.418;2022-07-22T11:46:25;25.50;48.60
32296;DHT22;18781;51.550;5.418;2022-07-22T11:48:52;25.60;49.90
32296;DHT22;18781;51.550;5.418;2022-07-22T11:51:18;25.60;49.60
32296;DHT22;18781;51.550;5.418;2022-07-22T11:53:43;25.60;49.30
32296;DHT22;18781;51.550;5.418;2022-07-22T11:56:10;25.70;48.40
32296;DHT22;18781;51.550;5.418;2022-07-22T11:58:47;25.70;49.40
32296;DHT22;18781;51.550;5.418;2022-07-22T12:01:17;25.80;49.00
32296;DHT22;18781;51.550;5.418;2022-07-22T12:03:57;25.90;48.70
32296;DHT22;18781;51.550;5.418;2022-07-22T12:06:24;26.00;49.20
32296;DHT22;18781;51.550;5.418;2022-07-22T12:08:54;26.10;49.10
32296;DHT22;18781;51.550;5.418;2022-07-22T12:11:23;26.10;49.00
32296;DHT22;18781;51.550;5.418;2022-07-22T12:13:51;26.10;49.10
32296;DHT22;18781;51.550;5.418;2022-07-22T12:16:29;26.20;47.90
32296;DHT22;18781;51.550;5.418;2022-07-22T12:19:00;26.30;48.90
32296;DHT22;18781;51.550;5.418;2022-07-22T12:21:28;26.30;48.10
32296;DHT22;18781;51.550;5.418;2022-07-22T12:24:06;26.40;47.70
32296;DHT22;18781;51.550;5.418;2022-07-22T12:26:46;26.40;47.40
32296;DHT22;18781;51.550;5.418;2022-07-22T12:29:12;26.40;47.30
32296;DHT22;18781;51.550;5.418;2022-07-22T12:31:44;26.50;48.90
32296;DHT22;18781;51.550;5.418;2022-07-22T12:34:11;26.50;46.50
32296;DHT22;18781;51.550;5.418;2022-07-22T12:36:37;26.50;47.20
32296;DHT22;18781;51.550;5.418;2022-07-22T12:39:14;26.50;46.30
32296;DHT22;18781;51.550;5.418;2022-07-22T12:41:52;26.50;46.90
32296;DHT22;18781;51.550;5.418;2022-07-22T12:44:23;26.50;46.80
32296;DHT22;18781;51.550;5.418;2022-07-22T12:46:54;26.50;46.80
32296;DHT22;18781;51.550;5.418;2022-07-22T12:49:24;26.60;45.50
32296;DHT22;18781;51.550;5.418;2022-07-22T12:54:33;26.60;46.40
32296;DHT22;18781;51.550;5.418;2022-07-22T12:56:59;26.60;46.50
32296;DHT22;18781;51.550;5.418;2022-07-22T12:59:25;26.60;47.30
32296;DHT22;18781;51.550;5.418;2022-07-22T13:01:50;26.70;47.10
32296;DHT22;18781;51.550;5.418;2022-07-22T13:04:16;26.70;47.40
32296;DHT22;18781;51.550;5.418;2022-07-22T13:06:41;26.80;46.40
32296;DHT22;18781;51.550;5.418;2022-07-22T13:09:07;26.80;45.30
32296;DHT22;18781;51.550;5.418;2022-07-22T13:11:33;26.80;45.30
32296;DHT22;18781;51.550;5.418;2022-07-22T13:14:05;26.80;44.50
32296;DHT22;18781;51.550;5.418;2022-07-22T13:16:32;26.80;45.50
32296;DHT22;18781;51.550;5.418;2022-07-22T13:18:58;26.80;46.60
32296;DHT22;18781;51.550;5.418;2022-07-22T13:21:23;26.80;45.70
32296;DHT22;18781;51.550;5.418;2022-07-22T13:23:49;26.90;45.20
32296;DHT22;18781;51.550;5.418;2022-07-22T13:26:15;26.90;45.10
32296;DHT22;18781;51.550;5.418;2022-07-22T13:28:40;26.90;44.80
32296;DHT22;18781;51.550;5.418;2022-07-22T13:31:06;26.90;44.60
32296;DHT22;18781;51.550;5.418;2022-07-22T13:33:32;26.90;44.20
32296;DHT22;18781;51.550;5.418;2022-07-22T13:35:58;26.90;44.60
32296;DHT22;18781;51.550;5.418;2022-07-22T13:38:24;26.90;45.90
32296;DHT22;18781;51.550;5.418;2022-07-22T13:40:49;26.90;45.50
32296;DHT22;18781;51.550;5.418;2022-07-22T13:43:22;27.00;44.90
32296;DHT22;18781;51.550;5.418;2022-07-22T13:45:49;27.00;45.30
32296;DHT22;18781;51.550;5.418;2022-07-22T13:48:15;27.00;45.40
32296;DHT22;18781;51.550;5.418;2022-07-22T13:50:42;27.00;45.00
32296;DHT22;18781;51.550;5.418;2022-07-22T13:53:08;27.10;44.90
32296;DHT22;18781;51.550;5.418;2022-07-22T13:55:33;27.10;45.00
32296;DHT22;18781;51.550;5.418;2022-07-22T13:57:59;27.10;44.40
32296;DHT22;18781;51.550;5.418;2022-07-22T14:00:25;27.10;43.90
32296;DHT22;18781;51.550;5.418;2022-07-22T14:02:50;27.10;43.50
32296;DHT22;18781;51.550;5.418;2022-07-22T14:05:17;27.10;43.60
32296;DHT22;18781;51.550;5.418;2022-07-22T14:07:43;27.00;43.80
32296;DHT22;18781;51.550;5.418;2022-07-22T14:10:10;27.10;43.70
32296;DHT22;18781;51.550;5.418;2022-07-22T14:12:36;27.00;44.00
32296;DHT22;18781;51.550;5.418;2022-07-22T14:15:01;27.10;44.10
32296;DHT22;18781;51.550;5.418;2022-07-22T14:17:27;27.10;44.60
32296;DHT22;18781;51.550;5.418;2022-07-22T14:19:53;27.10;44.50
32296;DHT22;18781;51.550;5.418;2022-07-22T14:22:18;27.10;44.90
32296;DHT22;18781;51.550;5.418;2022-07-22T14:24:44;27.20;44.20
32296;DHT22;18781;51.550;5.418;2022-07-22T14:27:10;27.20;43.60
32296;DHT22;18781;51.550;5.418;2022-07-22T14:29:35;27.20;43.50
32296;DHT22;18781;51.550;5.418;2022-07-22T14:32:01;27.20;43.50
32296;DHT22;18781;51.550;5.418;2022-07-22T14:34:26;27.20;43.70
32296;DHT22;18781;51.550;5.418;2022-07-22T14:36:52;27.20;43.20
32296;DHT22;18781;51.550;5.418;2022-07-22T14:39:17;27.20;43.90
32296;DHT22;18781;51.550;5.418;2022-07-22T14:41:43;27.20;43.10
32296;DHT22;18781;51.550;5.418;2022-07-22T14:44:11;27.20;42.80
32296;DHT22;18781;51.550;5.418;2022-07-22T14:46:37;27.20;43.50
32296;DHT22;18781;51.550;5.418;2022-07-22T14:49:03;27.20;43.80
32296;DHT22;18781;51.550;5.418;2022-07-22T14:51:28;27.20;44.40
32296;DHT22;18781;51.550;5.418;2022-07-22T14:53:54;27.20;44.00
32296;DHT22;18781;51.550;5.418;2022-07-22T14:56:20;27.30;43.80
32296;DHT22;18781;51.550;5.418;2022-07-22T14:58:45;27.30;43.10
32296;DHT22;18781;51.550;5.418;2022-07-22T15:01:11;27.30;43.20
32296;DHT22;18781;51.550;5.418;2022-07-22T15:03:37;27.30;43.60
32296;DHT22;18781;51.550;5.418;2022-07-22T15:06:03;27.30;43.10
32296;DHT22;18781;51.550;5.418;2022-07-22T15:08:29;27.30;43.60
32296;DHT22;18781;51.550;5.418;2022-07-22T15:10:55;27.30;43.20
32296;DHT22;18781;51.550;5.418;2022-07-22T15:13:20;27.30;43.60
32296;DHT22;18781;51.550;5.418;2022-07-22T15:15:46;27.30;44.00
32296;DHT22;18781;51.550;5.418;2022-07-22T15:18:12;27.30;43.40
32296;DHT22;18781;51.550;5.418;2022-07-22T15:20:38;27.30;43.60
32296;DHT22;18781;51.550;5.418;2022-07-22T15:23:04;27.20;43.40
32296;DHT22;18781;51.550;5.418;2022-07-22T15:25:30;27.20;43.30
32296;DHT22;18781;51.550;5.418;2022-07-22T15:27:55;27.20;43.10
32296;DHT22;18781;51.550;5.418;2022-07-22T15:30:21;27.20;43.10
32296;DHT22;18781;51.550;5.418;2022-07-22T15:32:47;27.10;43.40
32296;DHT22;18781;51.550;5.418;2022-07-22T15:35:12;27.10;43.50
32296;DHT22;18781;51.550;5.418;2022-07-22T15:37:38;27.10;43.60